sensor_id;sensor_type;location;lat;lon;timestamp;P1;durP1;ratioP1;P2;durP2;ratioP2
4696;SDS011;2362;50.780;0.292;2022-11-20T00:01:22;33.95;;;10.82;;
4696;SDS011;2362;50.780;0.292;2022-11-20T00:03:50;22.35;;;10.75;;
4696;SDS011;2362;50.780;0.292;2022-11-20T00:06:18;26.52;;;11.40;;
4696;SDS011;2362;50.780;0.292;2022-11-20T00:08:45;38.85;;;12.50;;
4696;SDS011;2362;50.780;0.292;2022-11-20T00:11:13;31.98;;;13.60;;
4696;SDS011;2362;50.780;0.292;2022-11-20T00:13:41;32.75;;;12.55;;
4696;SDS011;2362;50.780;0.292;2022-11-20T00:16:09;31.38;;;12.00;;
4696;SDS011;2362;50.780;0.292;2022-11-20T00:18:36;37.30;;;13.63;;
4696;SDS011;2362;50.780;0.292;2022-11-20T00:21:03;37.63;;;14.32;;
4696;SDS011;2362;50.780;0.292;2022-11-20T00:23:34;50.70;;;14.48;;
4696;SDS011;2362;50.780;0.292;2022-11-20T00:26:04;39.75;;;14.02;;
4696;SDS011;2362;50.780;0.292;2022-11-20T00:28:31;37.28;;;14.32;;
4696;SDS011;2362;50.780;0.292;2022-11-20T00:31:15;35.05;;;14.45;;
4696;SDS011;2362;50.780;0.292;2022-11-20T00:33:42;46.60;;;16.98;;
4696;SDS011;2362;50.780;0.292;2022-11-20T00:36:12;41.70;;;15.20;;
4696;SDS011;2362;50.780;0.292;2022-11-20T00:38:42;38.08;;;14.73;;
4696;SDS011;2362;50.780;0.292;2022-11-20T00:41:10;45.03;;;16.42;;
4696;SDS011;2362;50.780;0.292;2022-11-20T00:43:37;37.05;;;15.18;;
4696;SDS011;2362;50.780;0.292;2022-11-20T00:46:05;38.58;;;15.23;;
4696;SDS011;2362;50.780;0.292;2022-11-20T00:48:33;41.33;;;16.50;;
4696;SDS011;2362;50.780;0.292;2022-11-20T00:50:58;36.47;;;15.02;;
4696;SDS011;2362;50.780;0.292;2022-11-20T00:53:25;37.05;;;14.65;;
4696;SDS011;2362;50.780;0.292;2022-11-20T00:56:00;42.08;;;16.30;;
4696;SDS011;2362;50.780;0.292;2022-11-20T00:58:32;37.13;;;15.30;;
4696;SDS011;2362;50.780;0.292;2022-11-20T01:03:32;51.38;;;16.35;;
4696;SDS011;2362;50.780;0.292;2022-11-20T01:06:03;45.13;;;16.35;;
4696;SDS011;2362;50.780;0.292;2022-11-20T01:08:34;38.20;;;15.20;;
4696;SDS011;2362;50.780;0.292;2022-11-20T01:11:01;36.03;;;15.57;;
4696;SDS011;2362;50.780;0.292;2022-11-20T01:13:30;43.05;;;15.57;;
4696;SDS011;2362;50.780;0.292;2022-11-20T01:16:03;43.63;;;16.50;;
4696;SDS011;2362;50.780;0.292;2022-11-20T01:18:31;38.28;;;15.48;;
4696;SDS011;2362;50.780;0.292;2022-11-20T01:21:02;39.42;;;16.23;;
4696;SDS011;2362;50.780;0.292;2022-11-20T01:23:31;31.73;;;15.60;;
4696;SDS011;2362;50.780;0.292;2022-11-20T01:25:59;40.08;;;15.30;;
4696;SDS011;2362;50.780;0.292;2022-11-20T01:28:26;42.05;;;15.13;;
4696;SDS011;2362;50.780;0.292;2022-11-20T01:30:53;44.83;;;15.65;;
4696;SDS011;2362;50.780;0.292;2022-11-20T01:33:19;41.58;;;16.17;;
4696;SDS011;2362;50.780;0.292;2022-11-20T01:35:44;45.88;;;15.40;;
4696;SDS011;2362;50.780;0.292;2022-11-20T01:38:10;39.63;;;15.73;;
4696;SDS011;2362;50.780;0.292;2022-11-20T01:40:36;34.10;;;16.13;;
4696;SDS011;2362;50.780;0.292;2022-11-20T01:43:09;40.90;;;15.60;;
4696;SDS011;2362;50.780;0.292;2022-11-20T01:48:50;43.83;;;15.48;;
4696;SDS011;2362;50.780;0.292;2022-11-20T01:54:15;45.60;;;15.95;;
4696;SDS011;2362;50.780;0.292;2022-11-20T01:56:45;37.90;;;14.57;;
4696;SDS011;2362;50.780;0.292;2022-11-20T01:59:15;36.10;;;13.27;;
4696;SDS011;2362;50.780;0.292;2022-11-20T02:01:42;37.55;;;14.07;;
4696;SDS011;2362;50.780;0.292;2022-11-20T02:04:08;49.03;;;15.68;;
4696;SDS011;2362;50.780;0.292;2022-11-20T02:06:36;36.38;;;14.00;;
4696;SDS011;2362;50.780;0.292;2022-11-20T02:09:18;37.28;;;14.60;;
4696;SDS011;2362;50.780;0.292;2022-11-20T02:11:44;36.60;;;13.73;;
4696;SDS011;2362;50.780;0.292;2022-11-20T02:14:10;37.15;;;14.98;;
4696;SDS011;2362;50.780;0.292;2022-11-20T02:16:37;38.10;;;13.52;;
4696;SDS011;2362;50.780;0.292;2022-11-20T02:19:09;33.90;;;13.57;;
4696;SDS011;2362;50.780;0.292;2022-11-20T02:24:41;45.45;;;14.10;;
4696;SDS011;2362;50.780;0.292;2022-11-20T02:27:10;41.53;;;12.98;;
4696;SDS011;2362;50.780;0.292;2022-11-20T02:32:24;29.33;;;12.75;;
4696;SDS011;2362;50.780;0.292;2022-11-20T02:34:52;47.00;;;12.95;;
4696;SDS011;2362;50.780;0.292;2022-11-20T02:37:18;35.78;;;13.00;;
4696;SDS011;2362;50.780;0.292;2022-11-20T02:39:45;35.58;;;10.90;;
4696;SDS011;2362;50.780;0.292;2022-11-20T02:42:13;24.83;;;6.97;;
4696;SDS011;2362;50.780;0.292;2022-11-20T02:44:39;7.18;;;1.75;;
4696;SDS011;2362;50.780;0.292;2022-11-20T02:47:04;6.80;;;1.63;;
4696;SDS011;2362;50.780;0.292;2022-11-20T02:49:30;8.85;;;1.10;;
4696;SDS011;2362;50.780;0.292;2022-11-20T02:51:56;4.88;;;0.90;;
4696;SDS011;2362;50.780;0.292;2022-11-20T02:54:23;1.60;;;0.45;;
4696;SDS011;2362;50.780;0.292;2022-11-20T02:56:49;8.50;;;0.77;;
4696;SDS011;2362;50.780;0.292;2022-11-20T02:59:14;9.95;;;0.52;;
4696;SDS011;2362;50.780;0.292;2022-11-20T03:01:40;7.28;;;0.90;;
4696;SDS011;2362;50.780;0.292;2022-11-20T03:06:58;4.93;;;0.55;;
4696;SDS011;2362;50.780;0.292;2022-11-20T03:09:24;4.43;;;1.02;;
4696;SDS011;2362;50.780;0.292;2022-11-20T03:11:49;6.13;;;1.17;;
4696;SDS011;2362;50.780;0.292;2022-11-20T03:14:15;10.93;;;1.20;;
4696;SDS011;2362;50.780;0.292;2022-11-20T03:16:41;9.15;;;1.60;;
4696;SDS011;2362;50.780;0.292;2022-11-20T03:19:07;13.80;;;2.20;;
4696;SDS011;2362;50.780;0.292;2022-11-20T03:21:33;13.75;;;2.95;;
4696;SDS011;2362;50.780;0.292;2022-11-20T03:23:59;17.92;;;4.30;;
4696;SDS011;2362;50.780;0.292;2022-11-20T03:26:31;18.70;;;3.40;;
4696;SDS011;2362;50.780;0.292;2022-11-20T03:28:58;15.48;;;2.97;;
4696;SDS011;2362;50.780;0.292;2022-11-20T03:31:32;16.25;;;3.60;;
4696;SDS011;2362;50.780;0.292;2022-11-20T03:34:00;10.05;;;2.17;;
4696;SDS011;2362;50.780;0.292;2022-11-20T03:36:26;13.57;;;2.33;;
4696;SDS011;2362;50.780;0.292;2022-11-20T03:38:53;11.32;;;1.92;;
4696;SDS011;2362;50.780;0.292;2022-11-20T03:41:21;11.23;;;1.73;;
4696;SDS011;2362;50.780;0.292;2022-11-20T03:44:20;19.85;;;1.38;;
4696;SDS011;2362;50.780;0.292;2022-11-20T03:46:46;12.00;;;1.52;;
4696;SDS011;2362;50.780;0.292;2022-11-20T03:49:12;17.23;;;1.33;;
4696;SDS011;2362;50.780;0.292;2022-11-20T03:51:38;10.43;;;1.70;;
4696;SDS011;2362;50.780;0.292;2022-11-20T03:54:08;12.52;;;1.48;;
4696;SDS011;2362;50.780;0.292;2022-11-20T03:56:35;12.57;;;1.38;;
4696;SDS011;2362;50.780;0.292;2022-11-20T03:59:02;15.23;;;1.80;;
4696;SDS011;2362;50.780;0.292;2022-11-20T04:01:33;10.70;;;1.48;;
4696;SDS011;2362;50.780;0.292;2022-11-20T04:04:00;20.02;;;2.60;;
4696;SDS011;2362;50.780;0.292;2022-11-20T04:06:27;13.70;;;1.83;;
4696;SDS011;2362;50.780;0.292;2022-11-20T04:09:00;20.13;;;2.20;;
4696;SDS011;2362;50.780;0.292;2022-11-20T04:11:30;13.38;;;1.73;;
4696;SDS011;2362;50.780;0.292;2022-11-20T04:13:58;17.10;;;1.50;;
4696;SDS011;2362;50.780;0.292;2022-11-20T04:16:29;16.17;;;2.33;;
4696;SDS011;2362;50.780;0.292;2022-11-20T04:18:57;15.55;;;1.58;;
4696;SDS011;2362;50.780;0.292;2022-11-20T04:21:24;8.40;;;1.55;;
4696;SDS011;2362;50.780;0.292;2022-11-20T04:23:51;15.98;;;1.95;;
4696;SDS011;2362;50.780;0.292;2022-11-20T04:26:17;10.25;;;1.88;;
4696;SDS011;2362;50.780;0.292;2022-11-20T04:28:44;11.63;;;1.33;;
4696;SDS011;2362;50.780;0.292;2022-11-20T04:31:13;12.10;;;1.45;;
4696;SDS011;2362;50.780;0.292;2022-11-20T04:33:41;10.80;;;2.45;;
4696;SDS011;2362;50.780;0.292;2022-11-20T04:38:33;9.02;;;1.45;;
4696;SDS011;2362;50.780;0.292;2022-11-20T04:40:59;18.20;;;1.85;;
4696;SDS011;2362;50.780;0.292;2022-11-20T04:43:26;12.52;;;1.58;;
4696;SDS011;2362;50.780;0.292;2022-11-20T04:45:53;11.13;;;2.22;;
4696;SDS011;2362;50.780;0.292;2022-11-20T04:48:20;13.88;;;1.63;;
4696;SDS011;2362;50.780;0.292;2022-11-20T04:50:46;7.97;;;1.55;;
4696;SDS011;2362;50.780;0.292;2022-11-20T04:53:11;11.00;;;2.10;;
4696;SDS011;2362;50.780;0.292;2022-11-20T04:55:37;18.00;;;1.67;;
4696;SDS011;2362;50.780;0.292;2022-11-20T04:58:03;20.50;;;1.42;;
4696;SDS011;2362;50.780;0.292;2022-11-20T05:00:29;13.20;;;1.48;;
4696;SDS011;2362;50.780;0.292;2022-11-20T05:02:55;19.38;;;3.25;;
4696;SDS011;2362;50.780;0.292;2022-11-20T05:05:20;15.43;;;1.17;;
4696;SDS011;2362;50.780;0.292;2022-11-20T05:07:46;15.40;;;1.08;;
4696;SDS011;2362;50.780;0.292;2022-11-20T05:10:12;17.40;;;1.90;;
4696;SDS011;2362;50.780;0.292;2022-11-20T05:12:38;21.60;;;2.58;;
4696;SDS011;2362;50.780;0.292;2022-11-20T05:15:03;22.63;;;2.05;;
4696;SDS011;2362;50.780;0.292;2022-11-20T05:17:29;15.77;;;3.03;;
4696;SDS011;2362;50.780;0.292;2022-11-20T05:19:58;15.65;;;1.42;;
4696;SDS011;2362;50.780;0.292;2022-11-20T05:22:24;16.88;;;1.73;;
4696;SDS011;2362;50.780;0.292;2022-11-20T05:24:50;18.05;;;2.38;;
4696;SDS011;2362;50.780;0.292;2022-11-20T05:27:16;20.77;;;2.63;;
4696;SDS011;2362;50.780;0.292;2022-11-20T05:29:41;20.98;;;2.13;;
4696;SDS011;2362;50.780;0.292;2022-11-20T05:32:07;17.08;;;2.00;;
4696;SDS011;2362;50.780;0.292;2022-11-20T05:34:35;26.73;;;3.25;;
4696;SDS011;2362;50.780;0.292;2022-11-20T05:37:26;11.45;;;2.55;;
4696;SDS011;2362;50.780;0.292;2022-11-20T05:39:52;17.75;;;2.60;;
4696;SDS011;2362;50.780;0.292;2022-11-20T05:42:18;32.70;;;2.85;;
4696;SDS011;2362;50.780;0.292;2022-11-20T05:44:57;10.25;;;1.67;;
4696;SDS011;2362;50.780;0.292;2022-11-20T05:47:27;21.17;;;1.85;;
4696;SDS011;2362;50.780;0.292;2022-11-20T05:49:58;12.27;;;1.63;;
4696;SDS011;2362;50.780;0.292;2022-11-20T05:52:24;19.70;;;2.75;;
4696;SDS011;2362;50.780;0.292;2022-11-20T05:54:54;17.58;;;1.85;;
4696;SDS011;2362;50.780;0.292;2022-11-20T05:57:20;10.77;;;1.55;;
4696;SDS011;2362;50.780;0.292;2022-11-20T05:59:46;8.23;;;1.17;;
4696;SDS011;2362;50.780;0.292;2022-11-20T06:02:11;25.90;;;2.47;;
4696;SDS011;2362;50.780;0.292;2022-11-20T06:04:37;14.90;;;1.70;;
4696;SDS011;2362;50.780;0.292;2022-11-20T06:07:04;24.65;;;2.33;;
4696;SDS011;2362;50.780;0.292;2022-11-20T06:09:30;23.52;;;1.90;;
4696;SDS011;2362;50.780;0.292;2022-11-20T06:11:56;12.43;;;1.88;;
4696;SDS011;2362;50.780;0.292;2022-11-20T06:14:22;9.45;;;1.70;;
4696;SDS011;2362;50.780;0.292;2022-11-20T06:16:48;23.92;;;1.67;;
4696;SDS011;2362;50.780;0.292;2022-11-20T06:19:14;14.63;;;1.42;;
4696;SDS011;2362;50.780;0.292;2022-11-20T06:21:40;16.63;;;1.73;;
4696;SDS011;2362;50.780;0.292;2022-11-20T06:24:06;17.50;;;1.77;;
4696;SDS011;2362;50.780;0.292;2022-11-20T06:26:34;12.63;;;1.42;;
4696;SDS011;2362;50.780;0.292;2022-11-20T06:28:59;15.30;;;1.73;;
4696;SDS011;2362;50.780;0.292;2022-11-20T06:31:25;28.63;;;2.67;;
4696;SDS011;2362;50.780;0.292;2022-11-20T06:33:51;19.70;;;1.67;;
4696;SDS011;2362;50.780;0.292;2022-11-20T06:36:18;13.88;;;1.58;;
4696;SDS011;2362;50.780;0.292;2022-11-20T06:38:45;13.57;;;1.77;;
4696;SDS011;2362;50.780;0.292;2022-11-20T06:41:12;11.25;;;1.40;;
4696;SDS011;2362;50.780;0.292;2022-11-20T06:43:40;12.32;;;1.20;;
4696;SDS011;2362;50.780;0.292;2022-11-20T06:46:06;15.48;;;1.45;;
4696;SDS011;2362;50.780;0.292;2022-11-20T06:48:33;11.70;;;1.60;;
4696;SDS011;2362;50.780;0.292;2022-11-20T06:51:03;9.57;;;0.90;;
4696;SDS011;2362;50.780;0.292;2022-11-20T06:53:30;12.85;;;1.10;;
4696;SDS011;2362;50.780;0.292;2022-11-20T06:55:56;5.10;;;0.90;;
4696;SDS011;2362;50.780;0.292;2022-11-20T06:58:28;3.97;;;0.50;;
4696;SDS011;2362;50.780;0.292;2022-11-20T07:00:59;3.80;;;0.55;;
4696;SDS011;2362;50.780;0.292;2022-11-20T07:03:25;17.77;;;1.20;;
4696;SDS011;2362;50.780;0.292;2022-11-20T07:05:53;11.18;;;1.75;;
4696;SDS011;2362;50.780;0.292;2022-11-20T07:08:23;8.00;;;1.00;;
4696;SDS011;2362;50.780;0.292;2022-11-20T07:10:49;20.05;;;2.67;;
4696;SDS011;2362;50.780;0.292;2022-11-20T07:13:15;13.77;;;0.90;;
4696;SDS011;2362;50.780;0.292;2022-11-20T07:15:41;19.63;;;1.50;;
4696;SDS011;2362;50.780;0.292;2022-11-20T07:18:07;7.70;;;1.35;;
4696;SDS011;2362;50.780;0.292;2022-11-20T07:20:33;16.98;;;1.67;;
4696;SDS011;2362;50.780;0.292;2022-11-20T07:22:58;20.70;;;1.45;;
4696;SDS011;2362;50.780;0.292;2022-11-20T07:25:25;10.07;;;1.42;;
4696;SDS011;2362;50.780;0.292;2022-11-20T07:27:51;13.07;;;1.52;;
4696;SDS011;2362;50.780;0.292;2022-11-20T07:30:17;17.80;;;2.15;;
4696;SDS011;2362;50.780;0.292;2022-11-20T07:32:47;33.58;;;3.83;;
4696;SDS011;2362;50.780;0.292;2022-11-20T07:35:17;14.38;;;2.70;;
4696;SDS011;2362;50.780;0.292;2022-11-20T07:37:43;16.85;;;1.90;;
4696;SDS011;2362;50.780;0.292;2022-11-20T07:40:11;19.08;;;2.63;;
4696;SDS011;2362;50.780;0.292;2022-11-20T07:42:37;24.25;;;3.30;;
4696;SDS011;2362;50.780;0.292;2022-11-20T07:45:03;16.98;;;2.75;;
4696;SDS011;2362;50.780;0.292;2022-11-20T07:47:34;35.85;;;3.42;;
4696;SDS011;2362;50.780;0.292;2022-11-20T07:50:01;39.53;;;4.25;;
4696;SDS011;2362;50.780;0.292;2022-11-20T07:52:29;47.60;;;4.15;;
4696;SDS011;2362;50.780;0.292;2022-11-20T07:54:54;28.92;;;3.80;;
4696;SDS011;2362;50.780;0.292;2022-11-20T07:57:20;32.97;;;4.13;;
4696;SDS011;2362;50.780;0.292;2022-11-20T07:59:46;30.92;;;3.97;;
4696;SDS011;2362;50.780;0.292;2022-11-20T08:02:11;19.92;;;2.53;;
4696;SDS011;2362;50.780;0.292;2022-11-20T08:04:37;13.60;;;2.65;;
4696;SDS011;2362;50.780;0.292;2022-11-20T08:07:03;17.42;;;2.53;;
4696;SDS011;2362;50.780;0.292;2022-11-20T08:09:29;24.20;;;2.13;;
4696;SDS011;2362;50.780;0.292;2022-11-20T08:11:55;18.98;;;2.38;;
4696;SDS011;2362;50.780;0.292;2022-11-20T08:14:39;17.50;;;2.47;;
4696;SDS011;2362;50.780;0.292;2022-11-20T08:17:05;25.38;;;2.30;;
4696;SDS011;2362;50.780;0.292;2022-11-20T08:19:31;30.05;;;3.78;;
4696;SDS011;2362;50.780;0.292;2022-11-20T08:21:56;29.67;;;2.95;;
4696;SDS011;2362;50.780;0.292;2022-11-20T08:24:22;30.35;;;3.28;;
4696;SDS011;2362;50.780;0.292;2022-11-20T08:26:48;21.77;;;2.85;;
4696;SDS011;2362;50.780;0.292;2022-11-20T08:29:14;30.38;;;3.58;;
4696;SDS011;2362;50.780;0.292;2022-11-20T08:31:39;32.28;;;3.40;;
4696;SDS011;2362;50.780;0.292;2022-11-20T08:34:06;29.63;;;2.75;;
4696;SDS011;2362;50.780;0.292;2022-11-20T08:36:32;32.67;;;3.67;;
4696;SDS011;2362;50.780;0.292;2022-11-20T08:39:00;21.83;;;2.78;;
4696;SDS011;2362;50.780;0.292;2022-11-20T08:41:26;40.92;;;2.70;;
4696;SDS011;2362;50.780;0.292;2022-11-20T08:44:02;23.48;;;2.78;;
4696;SDS011;2362;50.780;0.292;2022-11-20T08:46:32;21.15;;;3.08;;
4696;SDS011;2362;50.780;0.292;2022-11-20T08:49:07;28.55;;;2.22;;
4696;SDS011;2362;50.780;0.292;2022-11-20T08:51:34;20.13;;;2.38;;
4696;SDS011;2362;50.780;0.292;2022-11-20T08:54:00;14.10;;;1.25;;
4696;SDS011;2362;50.780;0.292;2022-11-20T08:56:27;7.88;;;0.90;;
4696;SDS011;2362;50.780;0.292;2022-11-20T08:58:53;3.83;;;0.80;;
4696;SDS011;2362;50.780;0.292;2022-11-20T09:01:20;6.53;;;0.65;;
4696;SDS011;2362;50.780;0.292;2022-11-20T09:03:46;1.10;;;0.28;;
4696;SDS011;2362;50.780;0.292;2022-11-20T09:06:12;3.90;;;0.60;;
4696;SDS011;2362;50.780;0.292;2022-11-20T09:08:39;0.98;;;0.20;;
4696;SDS011;2362;50.780;0.292;2022-11-20T09:11:05;0.65;;;0.20;;
4696;SDS011;2362;50.780;0.292;2022-11-20T09:13:32;3.38;;;0.40;;
4696;SDS011;2362;50.780;0.292;2022-11-20T09:16:25;2.03;;;0.20;;
4696;SDS011;2362;50.780;0.292;2022-11-20T09:18:52;1.83;;;0.43;;
4696;SDS011;2362;50.780;0.292;2022-11-20T09:21:17;2.60;;;0.60;;
4696;SDS011;2362;50.780;0.292;2022-11-20T09:23:43;1.88;;;0.50;;
4696;SDS011;2362;50.780;0.292;2022-11-20T09:26:13;2.13;;;0.63;;
4696;SDS011;2362;50.780;0.292;2022-11-20T09:28:39;3.53;;;0.80;;
4696;SDS011;2362;50.780;0.292;2022-11-20T09:31:06;5.35;;;0.90;;
4696;SDS011;2362;50.780;0.292;2022-11-20T09:33:33;9.32;;;1.63;;
4696;SDS011;2362;50.780;0.292;2022-11-20T09:35:59;6.43;;;1.30;;
4696;SDS011;2362;50.780;0.292;2022-11-20T09:38:25;13.70;;;1.58;;
4696;SDS011;2362;50.780;0.292;2022-11-20T09:40:58;10.88;;;1.38;;
4696;SDS011;2362;50.780;0.292;2022-11-20T09:46:28;16.58;;;2.25;;
4696;SDS011;2362;50.780;0.292;2022-11-20T09:51:58;8.73;;;1.60;;
4696;SDS011;2362;50.780;0.292;2022-11-20T09:54:27;11.68;;;2.30;;
4696;SDS011;2362;50.780;0.292;2022-11-20T09:57:03;17.25;;;2.17;;
4696;SDS011;2362;50.780;0.292;2022-11-20T09:59:37;10.07;;;2.08;;
4696;SDS011;2362;50.780;0.292;2022-11-20T10:04:51;30.58;;;3.15;;
4696;SDS011;2362;50.780;0.292;2022-11-20T10:16:13;29.95;;;3.50;;
4696;SDS011;2362;50.780;0.292;2022-11-20T10:24:17;36.60;;;2.72;;
4696;SDS011;2362;50.780;0.292;2022-11-20T10:29:36;19.92;;;2.58;;
4696;SDS011;2362;50.780;0.292;2022-11-20T10:32:16;19.90;;;2.80;;
4696;SDS011;2362;50.780;0.292;2022-11-20T10:37:59;23.10;;;3.60;;
4696;SDS011;2362;50.780;0.292;2022-11-20T10:45:43;22.58;;;3.15;;
4696;SDS011;2362;50.780;0.292;2022-11-20T10:48:21;26.52;;;3.90;;
4696;SDS011;2362;50.780;0.292;2022-11-20T10:56:35;23.35;;;2.67;;
4696;SDS011;2362;50.780;0.292;2022-11-20T11:01:40;29.92;;;3.42;;
4696;SDS011;2362;50.780;0.292;2022-11-20T11:04:14;17.25;;;2.65;;
4696;SDS011;2362;50.780;0.292;2022-11-20T11:06:46;22.98;;;3.20;;
4696;SDS011;2362;50.780;0.292;2022-11-20T11:09:19;28.27;;;3.67;;
4696;SDS011;2362;50.780;0.292;2022-11-20T11:11:55;28.60;;;3.78;;
4696;SDS011;2362;50.780;0.292;2022-11-20T11:14:21;32.42;;;3.60;;
4696;SDS011;2362;50.780;0.292;2022-11-20T11:16:55;27.13;;;3.67;;
4696;SDS011;2362;50.780;0.292;2022-11-20T11:19:23;45.40;;;4.30;;
4696;SDS011;2362;50.780;0.292;2022-11-20T11:21:50;21.13;;;2.72;;
4696;SDS011;2362;50.780;0.292;2022-11-20T11:26:58;25.85;;;4.60;;
4696;SDS011;2362;50.780;0.292;2022-11-20T11:29:29;36.45;;;4.40;;
4696;SDS011;2362;50.780;0.292;2022-11-20T11:32:29;30.33;;;3.03;;
4696;SDS011;2362;50.780;0.292;2022-11-20T11:35:01;31.38;;;4.15;;
4696;SDS011;2362;50.780;0.292;2022-11-20T11:38:01;37.95;;;5.07;;
4696;SDS011;2362;50.780;0.292;2022-11-20T11:40:43;35.08;;;4.57;;
4696;SDS011;2362;50.780;0.292;2022-11-20T11:43:31;27.77;;;4.60;;
4696;SDS011;2362;50.780;0.292;2022-11-20T11:48:57;33.33;;;4.40;;
4696;SDS011;2362;50.780;0.292;2022-11-20T11:51:25;38.08;;;4.28;;
4696;SDS011;2362;50.780;0.292;2022-11-20T11:53:57;29.40;;;4.07;;
4696;SDS011;2362;50.780;0.292;2022-11-20T11:56:24;34.67;;;5.35;;
4696;SDS011;2362;50.780;0.292;2022-11-20T11:58:51;30.58;;;4.57;;
4696;SDS011;2362;50.780;0.292;2022-11-20T12:07:10;38.80;;;4.85;;
4696;SDS011;2362;50.780;0.292;2022-11-20T12:09:43;34.40;;;4.18;;
4696;SDS011;2362;50.780;0.292;2022-11-20T12:12:16;34.40;;;4.97;;
4696;SDS011;2362;50.780;0.292;2022-11-20T12:14:46;37.40;;;4.40;;
4696;SDS011;2362;50.780;0.292;2022-11-20T12:17:15;36.63;;;5.18;;
4696;SDS011;2362;50.780;0.292;2022-11-20T12:19:43;33.60;;;5.07;;
4696;SDS011;2362;50.780;0.292;2022-11-20T12:25:04;40.00;;;5.35;;
4696;SDS011;2362;50.780;0.292;2022-11-20T12:30:16;47.78;;;5.95;;
4696;SDS011;2362;50.780;0.292;2022-11-20T12:32:56;51.63;;;5.93;;
4696;SDS011;2362;50.780;0.292;2022-11-20T12:38:23;41.40;;;5.57;;
4696;SDS011;2362;50.780;0.292;2022-11-20T12:41:11;31.98;;;5.90;;
4696;SDS011;2362;50.780;0.292;2022-11-20T12:47:49;35.95;;;4.53;;
4696;SDS011;2362;50.780;0.292;2022-11-20T12:50:16;45.40;;;6.07;;
4696;SDS011;2362;50.780;0.292;2022-11-20T13:01:21;39.80;;;4.75;;
4696;SDS011;2362;50.780;0.292;2022-11-20T13:07:00;37.42;;;4.85;;
4696;SDS011;2362;50.780;0.292;2022-11-20T13:09:43;41.28;;;5.00;;
4696;SDS011;2362;50.780;0.292;2022-11-20T13:12:14;40.03;;;5.25;;
4696;SDS011;2362;50.780;0.292;2022-11-20T13:17:45;59.83;;;6.55;;
4696;SDS011;2362;50.780;0.292;2022-11-20T13:20:17;38.78;;;5.32;;
4696;SDS011;2362;50.780;0.292;2022-11-20T13:25:10;45.15;;;4.90;;
4696;SDS011;2362;50.780;0.292;2022-11-20T13:27:47;50.30;;;7.72;;
4696;SDS011;2362;50.780;0.292;2022-11-20T13:30:16;45.35;;;6.93;;
4696;SDS011;2362;50.780;0.292;2022-11-20T13:35:28;38.67;;;5.40;;
4696;SDS011;2362;50.780;0.292;2022-11-20T13:41:00;31.02;;;5.72;;
4696;SDS011;2362;50.780;0.292;2022-11-20T13:43:48;45.72;;;6.88;;
4696;SDS011;2362;50.780;0.292;2022-11-20T13:46:15;54.53;;;7.53;;
4696;SDS011;2362;50.780;0.292;2022-11-20T13:48:44;44.03;;;6.28;;
4696;SDS011;2362;50.780;0.292;2022-11-20T13:54:10;49.75;;;7.60;;
4696;SDS011;2362;50.780;0.292;2022-11-20T14:02:09;36.10;;;5.65;;
4696;SDS011;2362;50.780;0.292;2022-11-20T14:04:42;40.70;;;5.18;;
4696;SDS011;2362;50.780;0.292;2022-11-20T14:07:10;33.42;;;5.50;;
4696;SDS011;2362;50.780;0.292;2022-11-20T14:09:37;43.80;;;4.97;;
4696;SDS011;2362;50.780;0.292;2022-11-20T14:12:03;48.83;;;5.30;;
4696;SDS011;2362;50.780;0.292;2022-11-20T14:14:46;36.83;;;6.05;;
4696;SDS011;2362;50.780;0.292;2022-11-20T14:17:22;44.33;;;6.57;;
4696;SDS011;2362;50.780;0.292;2022-11-20T14:20:00;39.50;;;5.95;;
4696;SDS011;2362;50.780;0.292;2022-11-20T14:22:30;31.00;;;5.22;;
4696;SDS011;2362;50.780;0.292;2022-11-20T14:27:41;39.95;;;5.90;;
4696;SDS011;2362;50.780;0.292;2022-11-20T14:30:20;34.33;;;5.57;;
4696;SDS011;2362;50.780;0.292;2022-11-20T14:32:48;34.58;;;4.75;;
4696;SDS011;2362;50.780;0.292;2022-11-20T14:35:18;44.53;;;6.00;;
4696;SDS011;2362;50.780;0.292;2022-11-20T14:37:48;44.67;;;5.68;;
4696;SDS011;2362;50.780;0.292;2022-11-20T14:40:22;33.38;;;4.78;;
4696;SDS011;2362;50.780;0.292;2022-11-20T14:42:48;32.80;;;4.70;;
4696;SDS011;2362;50.780;0.292;2022-11-20T14:45:14;48.38;;;7.68;;
4696;SDS011;2362;50.780;0.292;2022-11-20T14:47:42;37.60;;;8.10;;
4696;SDS011;2362;50.780;0.292;2022-11-20T14:50:16;41.97;;;7.43;;
4696;SDS011;2362;50.780;0.292;2022-11-20T14:52:53;41.28;;;6.70;;
4696;SDS011;2362;50.780;0.292;2022-11-20T14:55:33;42.40;;;6.72;;
4696;SDS011;2362;50.780;0.292;2022-11-20T14:58:01;43.35;;;6.50;;
4696;SDS011;2362;50.780;0.292;2022-11-20T15:00:30;39.72;;;5.30;;
4696;SDS011;2362;50.780;0.292;2022-11-20T15:02:57;33.45;;;5.45;;
4696;SDS011;2362;50.780;0.292;2022-11-20T15:05:24;42.63;;;6.97;;
4696;SDS011;2362;50.780;0.292;2022-11-20T15:08:10;42.70;;;5.45;;
4696;SDS011;2362;50.780;0.292;2022-11-20T15:10:36;36.88;;;6.60;;
4696;SDS011;2362;50.780;0.292;2022-11-20T15:13:11;46.78;;;6.15;;
4696;SDS011;2362;50.780;0.292;2022-11-20T15:15:42;47.97;;;6.38;;
4696;SDS011;2362;50.780;0.292;2022-11-20T15:18:19;33.38;;;5.40;;
4696;SDS011;2362;50.780;0.292;2022-11-20T15:20:55;54.10;;;6.45;;
4696;SDS011;2362;50.780;0.292;2022-11-20T15:23:23;46.35;;;5.65;;
4696;SDS011;2362;50.780;0.292;2022-11-20T15:25:49;58.40;;;5.80;;
4696;SDS011;2362;50.780;0.292;2022-11-20T15:28:19;38.72;;;5.57;;
4696;SDS011;2362;50.780;0.292;2022-11-20T15:30:56;48.75;;;6.25;;
4696;SDS011;2362;50.780;0.292;2022-11-20T15:33:22;51.17;;;6.80;;
4696;SDS011;2362;50.780;0.292;2022-11-20T15:35:48;60.65;;;6.82;;
4696;SDS011;2362;50.780;0.292;2022-11-20T15:38:14;53.42;;;6.57;;
4696;SDS011;2362;50.780;0.292;2022-11-20T15:40:40;40.35;;;6.22;;
4696;SDS011;2362;50.780;0.292;2022-11-20T15:43:06;50.65;;;7.00;;
4696;SDS011;2362;50.780;0.292;2022-11-20T15:45:54;43.13;;;5.93;;
4696;SDS011;2362;50.780;0.292;2022-11-20T15:48:23;42.97;;;5.88;;
4696;SDS011;2362;50.780;0.292;2022-11-20T15:50:54;46.33;;;5.80;;
4696;SDS011;2362;50.780;0.292;2022-11-20T15:53:24;28.50;;;4.97;;
4696;SDS011;2362;50.780;0.292;2022-11-20T15:55:50;34.42;;;4.78;;
4696;SDS011;2362;50.780;0.292;2022-11-20T15:58:16;32.63;;;4.97;;
4696;SDS011;2362;50.780;0.292;2022-11-20T16:00:42;47.70;;;4.40;;
4696;SDS011;2362;50.780;0.292;2022-11-20T16:03:11;31.42;;;5.55;;
4696;SDS011;2362;50.780;0.292;2022-11-20T16:05:38;49.97;;;5.75;;
4696;SDS011;2362;50.780;0.292;2022-11-20T16:08:04;49.50;;;6.07;;
4696;SDS011;2362;50.780;0.292;2022-11-20T16:10:30;56.28;;;5.43;;
4696;SDS011;2362;50.780;0.292;2022-11-20T16:12:56;37.38;;;5.00;;
4696;SDS011;2362;50.780;0.292;2022-11-20T16:15:41;45.72;;;5.75;;
4696;SDS011;2362;50.780;0.292;2022-11-20T16:18:20;53.15;;;7.00;;
4696;SDS011;2362;50.780;0.292;2022-11-20T16:20:47;39.65;;;4.75;;
4696;SDS011;2362;50.780;0.292;2022-11-20T16:23:16;42.63;;;5.05;;
4696;SDS011;2362;50.780;0.292;2022-11-20T16:25:42;37.00;;;5.13;;
4696;SDS011;2362;50.780;0.292;2022-11-20T16:28:09;41.20;;;6.10;;
4696;SDS011;2362;50.780;0.292;2022-11-20T16:30:35;31.98;;;4.28;;
4696;SDS011;2362;50.780;0.292;2022-11-20T16:33:02;45.47;;;5.10;;
4696;SDS011;2362;50.780;0.292;2022-11-20T16:35:29;43.38;;;5.25;;
4696;SDS011;2362;50.780;0.292;2022-11-20T16:37:56;27.60;;;3.55;;
4696;SDS011;2362;50.780;0.292;2022-11-20T16:40:23;44.13;;;5.93;;
4696;SDS011;2362;50.780;0.292;2022-11-20T16:42:49;39.75;;;6.60;;
4696;SDS011;2362;50.780;0.292;2022-11-20T16:45:15;53.25;;;7.28;;
4696;SDS011;2362;50.780;0.292;2022-11-20T16:47:44;34.40;;;5.05;;
4696;SDS011;2362;50.780;0.292;2022-11-20T16:50:10;36.72;;;4.55;;
4696;SDS011;2362;50.780;0.292;2022-11-20T16:52:35;24.48;;;3.97;;
4696;SDS011;2362;50.780;0.292;2022-11-20T16:55:01;28.67;;;3.80;;
4696;SDS011;2362;50.780;0.292;2022-11-20T16:57:28;25.65;;;3.95;;
4696;SDS011;2362;50.780;0.292;2022-11-20T16:59:55;32.35;;;4.32;;
4696;SDS011;2362;50.780;0.292;2022-11-20T17:02:21;29.83;;;3.95;;
4696;SDS011;2362;50.780;0.292;2022-11-20T17:04:47;31.13;;;4.30;;
4696;SDS011;2362;50.780;0.292;2022-11-20T17:07:12;21.13;;;3.50;;
4696;SDS011;2362;50.780;0.292;2022-11-20T17:09:38;33.80;;;4.00;;
4696;SDS011;2362;50.780;0.292;2022-11-20T17:12:05;25.05;;;4.07;;